createdAt,value
2023-05-06T00:02:47.124Z,100980.30
2023-05-06T00:07:49.800Z,100979.59
2023-05-06T00:12:52.531Z,100982.29
2023-05-06T00:17:55.614Z,100978.83
2023-05-06T00:22:59.340Z,100976.70
2023-05-06T00:28:01.830Z,100978.95
2023-05-06T00:33:04.415Z,100988.04
2023-05-06T00:38:10.228Z,100990.92
2023-05-06T00:43:12.840Z,100986.02
2023-05-06T00:48:16.341Z,100988.77
2023-05-06T00:53:21.656Z,100988.55
2023-05-06T00:58:24.181Z,100994.73
2023-05-06T01:03:26.872Z,100999.55
2023-05-06T01:08:37.464Z,101003.69
2023-05-06T01:13:48.486Z,101004.84
2023-05-06T01:18:54.730Z,101009.11
2023-05-06T01:23:58.488Z,101004.25
2023-05-06T01:29:02.321Z,101006.59
2023-05-06T01:34:14.181Z,101011.54
2023-05-06T01:39:20.613Z,101015.98
2023-05-06T01:44:24.034Z,101014.40
2023-05-06T01:49:27.848Z,101015.23
2023-05-06T01:54:30.546Z,101009.50
2023-05-06T01:59:33.065Z,101013.95
2023-05-06T02:04:35.899Z,101006.04
2023-05-06T02:09:38.697Z,101007.88
2023-05-06T02:14:41.283Z,101010.60
2023-05-06T02:19:43.811Z,101018.10
2023-05-06T02:24:46.431Z,101015.61
2023-05-06T02:29:48.998Z,101019.84
2023-05-06T02:34:53.135Z,101018.56
2023-05-06T02:39:55.662Z,101015.27
2023-05-06T02:44:58.750Z,101016.98
2023-05-06T02:50:01.341Z,101013.35
2023-05-06T02:55:06.347Z,101011.52
2023-05-06T03:00:10.927Z,101004.70
2023-05-06T03:05:13.514Z,101002.52
2023-05-06T03:10:16.218Z,101003.29
2023-05-06T03:15:18.888Z,101003.20
2023-05-06T03:20:21.502Z,101006.27
2023-05-06T03:25:24.230Z,101000.73
2023-05-06T03:30:26.877Z,100998.30
2023-05-06T03:35:29.507Z,100998.95
2023-05-06T03:40:32.809Z,100998.90
2023-05-06T03:45:35.926Z,100996.79
2023-05-06T03:50:38.622Z,100999.17
2023-05-06T03:55:41.900Z,101006.90
2023-05-06T04:00:44.549Z,101008.91
2023-05-06T04:05:48.997Z,101012.11
2023-05-06T04:10:52.086Z,101012.17
2023-05-06T04:15:54.717Z,101010.62
2023-05-06T04:20:57.316Z,101012.52
2023-05-06T04:25:59.967Z,101005.05
2023-05-06T04:31:02.596Z,101007.09
2023-05-06T04:36:06.583Z,100997.35
2023-05-06T04:41:09.458Z,100990.90
2023-05-06T04:46:12.111Z,100994.48
2023-05-06T04:51:15.129Z,101001.16
2023-05-06T04:56:17.620Z,100995.39
2023-05-06T05:01:20.928Z,100995.69
2023-05-06T05:06:23.590Z,100993.69
2023-05-06T05:11:26.367Z,100987.33
2023-05-06T05:16:28.999Z,100987.52
2023-05-06T05:21:31.686Z,100982.63
2023-05-06T05:26:34.281Z,100975.96
2023-05-06T05:31:36.989Z,100973.80
2023-05-06T05:36:39.585Z,100975.59
2023-05-06T05:41:42.134Z,100969.86
2023-05-06T05:46:44.717Z,100969.31
2023-05-06T05:51:47.615Z,100968.65
2023-05-06T05:56:50.583Z,100962.04
2023-05-06T06:01:53.123Z,100960.28
2023-05-06T06:06:57.959Z,100958.91
2023-05-06T06:12:04.485Z,100956.41
2023-05-06T06:17:11.452Z,100955.45
2023-05-06T06:22:14.009Z,100954.30
2023-05-06T06:27:16.512Z,100951.92
2023-05-06T06:32:19.601Z,100952.63
2023-05-06T06:37:22.223Z,100951.70
2023-05-06T06:42:24.760Z,100953.07
2023-05-06T06:47:27.419Z,100950.83
2023-05-06T06:52:30.115Z,100946.16
2023-05-06T06:57:32.657Z,100941.34
2023-05-06T07:02:35.299Z,100935.98
2023-05-06T07:07:38.070Z,100940.61
2023-05-06T07:12:40.619Z,100940.41
2023-05-06T07:17:43.663Z,100943.89
2023-05-06T07:22:46.244Z,100938.52
2023-05-06T07:27:48.820Z,100937.91
2023-05-06T07:32:51.514Z,100932.44
2023-05-06T07:37:54.220Z,100930.52
2023-05-06T07:42:57.185Z,100926.34
2023-05-06T07:47:59.971Z,100926.97
2023-05-06T07:53:02.534Z,100933.14
2023-05-06T07:58:05.120Z,100925.30
2023-05-06T08:03:08.168Z,100928.73
2023-05-06T08:08:10.907Z,100930.63
2023-05-06T08:13:13.623Z,100932.34
2023-05-06T08:18:22.286Z,100927.51
2023-05-06T08:23:25.821Z,100927.08
2023-05-06T08:28:29.266Z,100929.27
2023-05-06T08:33:31.849Z,100922.72
2023-05-06T08:38:34.380Z,100910.38
2023-05-06T08:43:48.041Z,100906.33
2023-05-06T08:48:50.946Z,100895.84
2023-05-06T08:53:54.762Z,100897.50
2023-05-06T08:58:58.500Z,100897.36
2023-05-06T09:04:01.329Z,100895.45
2023-05-06T09:09:04.027Z,100883.60
2023-05-06T09:14:17.691Z,100882.97
2023-05-06T09:19:22.338Z,100876.45
2023-05-06T09:24:25.551Z,100872.73
2023-05-06T09:29:28.066Z,100867.35
2023-05-06T09:34:30.620Z,100862.82
2023-05-06T09:39:33.258Z,100862.23
2023-05-06T09:44:35.885Z,100861.91
2023-05-06T09:49:40.503Z,100860.39
2023-05-06T09:54:46.836Z,100861.38
2023-05-06T09:59:52.189Z,100865.15
2023-05-06T10:04:57.217Z,100857.31
2023-05-06T10:10:00.302Z,100850.98
2023-05-06T10:15:04.425Z,100855.10
2023-05-06T10:20:09.844Z,100852.31
2023-05-06T10:25:22.457Z,100850.59
2023-05-06T10:30:26.632Z,100849.54
2023-05-06T10:35:47.236Z,100841.73
2023-05-06T10:40:50.558Z,100835.66
2023-05-06T10:46:04.731Z,100836.23
2023-05-06T10:51:16.496Z,100831.20
2023-05-06T10:56:19.080Z,100829.96
2023-05-06T11:01:25.951Z,100820.61
2023-05-06T11:06:34.065Z,100819.77
2023-05-06T11:12:03.296Z,100814.23
2023-05-06T11:17:08.450Z,100818.56
2023-05-06T11:22:40.858Z,100815.23
2023-05-06T11:27:43.368Z,100813.36
2023-05-06T11:32:46.854Z,100815.03
2023-05-06T11:37:52.096Z,100803.88
2023-05-06T11:42:54.669Z,100804.28
2023-05-06T11:47:57.154Z,100796.75
2023-05-06T11:52:59.842Z,100797.61
2023-05-06T11:58:02.370Z,100802.83
2023-05-06T12:03:05.056Z,100797.56
2023-05-06T12:08:16.571Z,100798.73
2023-05-06T12:13:29.823Z,100802.02
2023-05-06T12:18:32.814Z,100801.70
2023-05-06T12:23:35.495Z,100796.81
2023-05-06T12:28:38.373Z,100795.66
2023-05-06T12:33:46.341Z,100796.70
2023-05-06T12:38:50.922Z,100789.40
2023-05-06T12:43:53.492Z,100784.51
2023-05-06T12:49:03.413Z,100776.75
2023-05-06T12:54:28.890Z,100776.05
2023-05-06T12:59:32.041Z,100781.52
2023-05-06T13:04:34.614Z,100783.06
2023-05-06T13:09:37.171Z,100777.23
2023-05-06T13:14:40.440Z,100776.73
2023-05-06T13:19:43.132Z,100774.95
2023-05-06T13:24:46.099Z,100769.45
2023-05-06T13:29:48.635Z,100769.90
2023-05-06T13:34:51.180Z,100767.20
2023-05-06T13:39:53.765Z,100765.69
2023-05-06T13:44:56.414Z,100761.43
2023-05-06T13:49:58.951Z,100751.73
2023-05-06T13:55:01.606Z,100759.00
2023-05-06T14:00:07.364Z,100764.23
2023-05-06T14:05:10.419Z,100755.66
2023-05-06T14:10:14.275Z,100755.67
2023-05-06T14:15:16.872Z,100758.02
2023-05-06T14:20:19.455Z,100752.73
2023-05-06T14:25:26.781Z,100751.58
2023-05-06T14:30:30.983Z,100745.86
2023-05-06T14:35:33.555Z,100738.81
2023-05-06T14:40:36.878Z,100736.27
2023-05-06T14:45:39.501Z,100739.20
2023-05-06T14:50:42.205Z,100733.55
2023-05-06T14:55:45.486Z,100731.73
2023-05-06T15:00:48.129Z,100728.84
2023-05-06T15:05:51.049Z,100731.17
2023-05-06T15:10:54.806Z,100734.31
2023-05-06T15:15:57.330Z,100737.47
2023-05-06T15:21:01.428Z,100739.95
2023-05-06T15:26:04.309Z,100739.83
2023-05-06T15:31:06.985Z,100736.13
2023-05-06T15:36:09.728Z,100738.25
2023-05-06T15:41:12.256Z,100737.91
2023-05-06T15:46:14.841Z,100732.84
2023-05-06T15:51:17.959Z,100732.41
2023-05-06T15:56:21.318Z,100734.79
2023-05-06T16:01:47.994Z,100732.70
2023-05-06T16:06:46.536Z,100731.33
2023-05-06T16:11:49.294Z,100736.05
2023-05-06T16:16:51.975Z,100739.58
2023-05-06T16:21:55.740Z,100739.05
2023-05-06T16:26:58.230Z,100742.19
2023-05-06T16:32:00.906Z,100746.00
2023-05-06T16:37:03.603Z,100749.79
2023-05-06T16:42:06.617Z,100744.04
2023-05-06T16:47:09.200Z,100742.90
2023-05-06T16:52:12.002Z,100742.90
2023-05-06T16:57:14.530Z,100744.31
2023-05-06T17:02:17.146Z,100742.08
2023-05-06T17:07:19.757Z,100742.95
2023-05-06T17:12:23.840Z,100741.36
2023-05-06T17:17:28.679Z,100737.73
2023-05-06T17:22:31.235Z,100745.73
2023-05-06T17:27:33.761Z,100741.58
2023-05-06T17:32:36.326Z,100741.33
2023-05-06T17:37:39.224Z,100741.64
2023-05-06T17:42:41.853Z,100740.63
2023-05-06T17:47:44.449Z,100743.69
2023-05-06T17:52:50.682Z,100740.88
2023-05-06T17:57:53.424Z,100742.65
2023-05-06T18:02:56.168Z,100744.88
2023-05-06T18:07:58.808Z,100748.60
2023-05-06T18:13:01.551Z,100752.54
2023-05-06T18:18:04.354Z,100756.46
2023-05-06T18:23:08.282Z,100755.88
2023-05-06T18:28:11.098Z,100757.23
2023-05-06T18:33:14.464Z,100755.91
2023-05-06T18:38:17.122Z,100760.83
2023-05-06T18:43:19.632Z,100761.86
2023-05-06T18:48:22.450Z,100765.48
2023-05-06T18:53:25.113Z,100772.88
2023-05-06T18:58:27.649Z,100774.84
2023-05-06T19:03:31.430Z,100780.12
2023-05-06T19:08:34.054Z,100785.86
2023-05-06T19:13:36.617Z,100788.27
2023-05-06T19:18:41.472Z,100791.73
2023-05-06T19:23:44.864Z,100789.41
2023-05-06T19:28:47.453Z,100791.79
2023-05-06T19:33:50.133Z,100792.61
2023-05-06T19:38:52.698Z,100788.73
2023-05-06T19:43:55.954Z,100788.38
2023-05-06T19:49:00.587Z,100788.00
2023-05-06T19:54:03.235Z,100789.38
2023-05-06T19:59:05.780Z,100796.13
2023-05-06T20:04:09.673Z,100793.80
2023-05-06T20:09:12.360Z,100795.85
2023-05-06T20:14:14.859Z,100801.91
2023-05-06T20:19:18.565Z,100800.50
2023-05-06T20:24:21.083Z,100802.23
2023-05-06T20:29:23.651Z,100802.03
2023-05-06T20:34:27.821Z,100799.90
2023-05-06T20:39:30.724Z,100796.91
2023-05-06T20:44:33.273Z,100793.07
2023-05-06T20:49:36.002Z,100791.37
2023-05-06T20:54:40.965Z,100795.41
2023-05-06T20:59:44.002Z,100802.04
2023-05-06T21:04:46.608Z,100794.27
2023-05-06T21:09:49.146Z,100791.53
2023-05-06T21:14:51.638Z,100800.41
2023-05-06T21:19:54.222Z,100803.86
2023-05-06T21:24:56.830Z,100807.69
2023-05-06T21:29:59.412Z,100805.02
2023-05-06T21:35:02.831Z,100803.73
2023-05-06T21:40:05.731Z,100802.44
2023-05-06T21:45:08.837Z,100805.95
2023-05-06T21:50:12.238Z,100806.16
2023-05-06T21:55:15.659Z,100804.30
2023-05-06T22:00:18.542Z,100811.77
2023-05-06T22:05:21.261Z,100816.13
2023-05-06T22:10:23.844Z,100819.65
2023-05-06T22:15:26.610Z,100816.91
2023-05-06T22:20:30.630Z,100813.50
2023-05-06T22:25:33.190Z,100814.26
2023-05-06T22:30:35.730Z,100813.98
2023-05-06T22:35:38.271Z,100818.77
2023-05-06T22:40:40.761Z,100818.16
2023-05-06T22:45:43.362Z,100814.81
2023-05-06T22:50:46.687Z,100815.30
2023-05-06T22:55:49.310Z,100815.27
2023-05-06T23:00:51.903Z,100825.27
2023-05-06T23:05:54.607Z,100830.60
2023-05-06T23:10:57.169Z,100841.10
2023-05-06T23:15:59.725Z,100842.39
2023-05-06T23:21:02.597Z,100843.15
2023-05-06T23:26:05.270Z,100841.33
2023-05-06T23:31:08.271Z,100842.76
2023-05-06T23:36:11.144Z,100847.01
2023-05-06T23:41:13.679Z,100848.82
2023-05-06T23:46:16.346Z,100847.34
2023-05-06T23:51:19.071Z,100847.94
2023-05-06T23:56:21.823Z,100844.02
